Time;durP1;ratioP1;P1;durP2;ratioP2;P2;SDS_P1;SDS_P2;PMS_P1;PMS_P2;Temp;Humidity;BMP_temperature;BMP_pressure;BME280_temperature;BME280_humidity;BME280_pressure;Samples;Min_cycle;Max_cycle;Signal;HPM_P1;HPM_P2
2022/03/31 00:00:33;;;;;;;;;33.75;27.25;;;;;;;;5038951;28;11398;-77
2022/03/31 00:03:01;;;;;;;;;29.00;27.75;;;;;;;;5040682;28;11467;-76
2022/03/31 00:05:29;;;;;;;;;32.50;28.25;;;;;;;;5040142;28;11488;-76
2022/03/31 00:07:58;;;;;;;;;31.00;30.25;;;;;;;;5040387;28;11482;-77
2022/03/31 00:10:28;;;;;;;;;31.25;29.00;;;;;;;;5040704;28;11488;-77
2022/03/31 00:12:58;;;;;;;;;25.75;23.50;;;;;;;;5038940;28;11520;-76
2022/03/31 00:15:26;;;;;;;;;23.75;20.25;;;;;;;;5038697;28;11481;-76
2022/03/31 00:17:53;;;;;;;;;31.25;29.00;;;;;;;;5034470;28;11458;-76
2022/03/31 00:20:21;;;;;;;;;29.00;27.75;;;;;;;;5014981;28;11488;-76
2022/03/31 00:22:48;;;;;;;;;27.50;25.00;;;;;;;;5038943;28;11615;-76
2022/03/31 00:25:16;;;;;;;;;29.25;27.00;;;;;;;;5027669;28;11480;-76
2022/03/31 00:27:43;;;;;;;;;26.50;25.00;;;;;;;;5030191;28;12156;-76
2022/03/31 00:30:13;;;;;;;;;26.25;23.50;;;;;;;;5047965;28;11571;-76
2022/03/31 00:32:41;;;;;;;;;22.50;22.50;;;;;;;;5039379;28;11474;-76
2022/03/31 00:35:12;;;;;;;;;25.75;25.75;;;;;;;;5038786;28;11464;-76
2022/03/31 00:37:40;;;;;;;;;22.75;14.50;;;;;;;;5038715;28;11467;-76
2022/03/31 00:40:09;;;;;;;;;34.75;29.50;;;;;;;;5041035;28;11518;-76
2022/03/31 00:42:41;;;;;;;;;29.00;24.50;;;;;;;;5038570;28;11468;-76
2022/03/31 00:45:15;;;;;;;;;29.50;26.00;;;;;;;;5042548;28;11456;-76
2022/03/31 00:47:42;;;;;;;;;27.25;24.75;;;;;;;;5039947;28;12455;-76
2022/03/31 00:50:11;;;;;;;;;26.50;23.50;;;;;;;;5039970;28;11454;-76
2022/03/31 00:52:38;;;;;;;;;25.75;25.75;;;;;;;;5020780;28;11456;-77
2022/03/31 00:55:08;;;;;;;;;23.25;20.75;;;;;;;;5038646;28;11480;-77
2022/03/31 00:57:36;;;;;;;;;26.00;22.00;;;;;;;;5034150;28;11472;-77
2022/03/31 01:00:07;;;;;;;;;28.75;26.50;;;;;;;;5034803;28;12289;-77
2022/03/31 01:02:38;;;;;;;;;31.50;22.00;;;;;;;;5035420;28;11563;-76
2022/03/31 01:05:07;;;;;;;;;25.25;24.00;;;;;;;;5037986;28;11514;-77
2022/03/31 01:07:35;;;;;;;;;25.50;25.50;;;;;;;;5039006;28;11665;-77
2022/03/31 01:10:03;;;;;;;;;24.25;22.00;;;;;;;;5041181;28;11669;-77
2022/03/31 01:12:31;;;;;;;;;32.00;27.25;;;;;;;;5018442;28;12923;-76
2022/03/31 01:15:10;;;;;;;;;26.25;24.50;;;;;;;;5039115;28;11679;-76
2022/03/31 01:17:40;;;;;;;;;30.25;28.75;;;;;;;;5038197;28;11511;-77
2022/03/31 01:20:11;;;;;;;;;43.00;40.50;;;;;;;;5046373;28;11594;-76
2022/03/31 01:22:38;;;;;;;;;44.25;40.25;;;;;;;;5035686;28;11516;-74
2022/03/31 01:25:09;;;;;;;;;49.75;41.00;;;;;;;;5034306;28;11605;-75
2022/03/31 01:27:38;;;;;;;;;50.00;40.75;;;;;;;;5040627;28;11509;-75
2022/03/31 01:30:08;;;;;;;;;47.00;40.75;;;;;;;;5038129;28;12204;-76
2022/03/31 01:32:35;;;;;;;;;52.00;40.00;;;;;;;;5041888;28;11529;-75
2022/03/31 01:35:03;;;;;;;;;43.50;41.00;;;;;;;;5044367;28;11534;-74
2022/03/31 01:37:30;;;;;;;;;46.75;40.00;;;;;;;;5043989;28;11542;-74
2022/03/31 01:39:59;;;;;;;;;61.75;49.50;;;;;;;;5043901;28;11534;-74
2022/03/31 01:42:28;;;;;;;;;43.75;39.25;;;;;;;;5042617;28;11522;-73
2022/03/31 01:44:56;;;;;;;;;52.75;41.75;;;;;;;;5043716;28;11599;-74
2022/03/31 01:47:24;;;;;;;;;49.25;40.00;;;;;;;;5023290;28;11701;-77
2022/03/31 01:49:51;;;;;;;;;42.25;39.50;;;;;;;;5039494;28;12360;-75
2022/03/31 01:52:19;;;;;;;;;47.75;40.75;;;;;;;;5033713;28;11521;-76
2022/03/31 01:54:46;;;;;;;;;50.25;43.75;;;;;;;;5033600;28;11523;-77
2022/03/31 01:57:13;;;;;;;;;36.50;34.75;;;;;;;;5023821;28;11560;-78
2022/03/31 01:59:43;;;;;;;;;40.00;34.50;;;;;;;;5020326;28;11643;-78
2022/03/31 02:02:13;;;;;;;;;48.50;39.50;;;;;;;;5038813;28;11480;-78
2022/03/31 02:04:41;;;;;;;;;49.50;41.25;;;;;;;;5036564;28;11634;-78
2022/03/31 02:07:09;;;;;;;;;56.00;46.50;;;;;;;;5035321;28;11547;-78
2022/03/31 02:09:36;;;;;;;;;51.00;44.75;;;;;;;;5036241;28;11550;-79
2022/03/31 02:12:04;;;;;;;;;56.00;45.25;;;;;;;;5040920;28;11531;-78
2022/03/31 02:14:32;;;;;;;;;62.50;50.50;;;;;;;;5040949;28;11505;-78
2022/03/31 02:17:01;;;;;;;;;54.00;42.75;;;;;;;;5028865;28;11575;-78
2022/03/31 02:19:29;;;;;;;;;56.50;42.25;;;;;;;;5023767;28;11518;-78
2022/03/31 02:21:56;;;;;;;;;51.50;43.00;;;;;;;;5031064;28;11638;-77
2022/03/31 02:24:24;;;;;;;;;64.00;48.25;;;;;;;;5038917;28;11529;-77
2022/03/31 02:26:51;;;;;;;;;64.25;50.25;;;;;;;;5033043;28;11654;-79
2022/03/31 02:29:19;;;;;;;;;58.25;44.50;;;;;;;;5027469;28;12372;-78
2022/03/31 02:31:47;;;;;;;;;62.50;51.50;;;;;;;;5041602;28;11545;-77
2022/03/31 02:34:17;;;;;;;;;65.00;53.00;;;;;;;;5038510;28;11545;-77
2022/03/31 02:36:44;;;;;;;;;69.00;52.00;;;;;;;;5041582;28;11511;-76
2022/03/31 02:39:12;;;;;;;;;63.25;50.75;;;;;;;;5038197;28;11545;-76
2022/03/31 02:41:40;;;;;;;;;64.25;50.50;;;;;;;;5039558;28;12984;-76
2022/03/31 02:44:08;;;;;;;;;61.25;49.75;;;;;;;;5040471;28;11517;-76
2022/03/31 02:46:36;;;;;;;;;48.75;43.75;;;;;;;;5034906;28;11597;-77
2022/03/31 02:49:05;;;;;;;;;62.50;49.00;;;;;;;;5037654;28;12274;-76
2022/03/31 02:51:34;;;;;;;;;60.50;47.75;;;;;;;;5039836;28;11520;-77
2022/03/31 02:56:46;;;;;;;;;63.25;50.50;;;;;;;;5039215;28;11489;-77
2022/03/31 02:59:13;;;;;;;;;63.00;52.25;;;;;;;;5039738;28;11561;-77
2022/03/31 03:01:43;;;;;;;;;41.50;37.00;;;;;;;;5035588;28;11497;-77
2022/03/31 03:04:11;;;;;;;;;62.75;50.50;;;;;;;;5037473;28;11666;-76
2022/03/31 03:06:39;;;;;;;;;62.00;49.75;;;;;;;;5038916;28;11579;-77
2022/03/31 03:09:08;;;;;;;;;62.75;50.25;;;;;;;;5038111;28;11562;-77
2022/03/31 03:11:35;;;;;;;;;61.50;49.25;;;;;;;;5038700;28;11505;-76
2022/03/31 03:14:03;;;;;;;;;65.50;52.00;;;;;;;;5037864;28;11613;-77
2022/03/31 03:16:30;;;;;;;;;60.25;49.75;;;;;;;;5038751;28;12272;-76
2022/03/31 03:18:59;;;;;;;;;64.75;51.25;;;;;;;;5036735;28;11688;-77
2022/03/31 03:21:26;;;;;;;;;49.75;41.00;;;;;;;;5042312;28;11565;-77
2022/03/31 03:23:55;;;;;;;;;55.50;46.25;;;;;;;;5039405;28;12286;-78
2022/03/31 03:26:22;;;;;;;;;62.25;48.75;;;;;;;;5039791;28;11511;-76
2022/03/31 03:28:49;;;;;;;;;69.50;54.75;;;;;;;;5036250;28;11618;-76
2022/03/31 03:31:17;;;;;;;;;63.50;48.25;;;;;;;;5032136;28;11453;-76
2022/03/31 03:33:44;;;;;;;;;45.25;41.00;;;;;;;;5037791;28;11630;-76
2022/03/31 03:36:12;;;;;;;;;64.25;50.75;;;;;;;;5032193;28;11540;-76
2022/03/31 03:38:40;;;;;;;;;60.25;47.50;;;;;;;;5040616;28;12446;-77
2022/03/31 03:41:10;;;;;;;;;50.25;44.50;;;;;;;;5040191;28;11512;-77
2022/03/31 03:43:38;;;;;;;;;61.00;49.50;;;;;;;;5022652;28;11511;-81
2022/03/31 03:46:06;;;;;;;;;49.75;40.75;;;;;;;;5046202;28;11492;-78
2022/03/31 03:48:34;;;;;;;;;64.25;48.50;;;;;;;;5041692;28;11519;-77
2022/03/31 03:51:02;;;;;;;;;60.00;50.25;;;;;;;;5041264;28;11523;-77
2022/03/31 03:53:29;;;;;;;;;57.75;47.50;;;;;;;;5033516;28;11638;-76
2022/03/31 03:55:57;;;;;;;;;49.25;42.25;;;;;;;;5039950;28;12250;-77
2022/03/31 03:58:25;;;;;;;;;64.75;51.75;;;;;;;;5033804;28;11560;-77
2022/03/31 04:00:53;;;;;;;;;61.75;49.50;;;;;;;;5039928;28;11449;-76
2022/03/31 04:03:20;;;;;;;;;55.00;46.50;;;;;;;;5040226;28;11502;-75
2022/03/31 04:05:50;;;;;;;;;63.00;51.25;;;;;;;;5041712;28;11493;-76
2022/03/31 04:08:17;;;;;;;;;67.25;54.00;;;;;;;;5035721;28;11639;-74
2022/03/31 04:10:45;;;;;;;;;64.00;50.50;;;;;;;;5034456;28;11534;-76
2022/03/31 04:13:12;;;;;;;;;49.75;43.75;;;;;;;;5026183;28;11638;-75
2022/03/31 04:15:41;;;;;;;;;66.75;50.25;;;;;;;;5027667;28;11571;-75
2022/03/31 04:18:09;;;;;;;;;64.00;50.75;;;;;;;;5041370;28;11532;-75
2022/03/31 04:20:37;;;;;;;;;70.25;54.75;;;;;;;;5042379;28;11556;-76
2022/03/31 04:23:05;;;;;;;;;62.75;52.00;;;;;;;;5013160;28;11670;-76
2022/03/31 04:25:33;;;;;;;;;72.00;52.67;;;;;;;;5027371;28;11619;-76
2022/03/31 04:28:00;;;;;;;;;74.00;56.67;;;;;;;;5034211;28;11536;-75
2022/03/31 04:30:27;;;;;;;;;61.00;49.75;;;;;;;;5032238;28;11695;-75
2022/03/31 04:32:56;;;;;;;;;67.75;55.25;;;;;;;;5028278;28;11601;-75
2022/03/31 04:35:23;;;;;;;;;60.25;45.75;;;;;;;;5029329;28;11719;-76
2022/03/31 04:37:51;;;;;;;;;67.50;54.00;;;;;;;;5027844;28;11580;-77
2022/03/31 04:40:18;;;;;;;;;68.00;55.50;;;;;;;;5031085;28;12282;-76
2022/03/31 04:42:46;;;;;;;;;67.00;53.25;;;;;;;;5030962;28;11552;-76
2022/03/31 04:45:14;;;;;;;;;67.50;53.75;;;;;;;;5032090;28;11516;-76
2022/03/31 04:47:41;;;;;;;;;71.75;55.25;;;;;;;;5030023;28;11511;-76
2022/03/31 04:50:10;;;;;;;;;67.50;55.50;;;;;;;;5030205;28;11523;-76
2022/03/31 04:52:38;;;;;;;;;70.25;54.00;;;;;;;;5033149;28;12465;-76
2022/03/31 04:55:06;;;;;;;;;62.00;51.50;;;;;;;;5033730;28;11515;-76
2022/03/31 04:57:33;;;;;;;;;68.00;56.00;;;;;;;;5030731;28;11702;-76
2022/03/31 05:00:01;;;;;;;;;68.50;56.50;;;;;;;;5015571;28;11585;-76
2022/03/31 05:02:29;;;;;;;;;67.50;54.75;;;;;;;;5028030;28;11512;-76
2022/03/31 05:04:56;;;;;;;;;63.50;52.00;;;;;;;;5032494;28;11517;-76
2022/03/31 05:07:25;;;;;;;;;72.50;56.25;;;;;;;;5031397;28;11551;-75
2022/03/31 05:09:53;;;;;;;;;65.25;49.75;;;;;;;;5027468;28;11542;-78
2022/03/31 05:12:20;;;;;;;;;67.00;52.75;;;;;;;;5032594;28;11514;-77
2022/03/31 05:14:48;;;;;;;;;64.00;52.50;;;;;;;;5039150;28;11525;-76
2022/03/31 05:17:15;;;;;;;;;73.50;56.50;;;;;;;;5030875;28;11613;-82
2022/03/31 05:19:42;;;;;;;;;70.50;54.25;;;;;;;;5038109;28;12255;-73
2022/03/31 05:22:09;;;;;;;;;66.25;53.00;;;;;;;;5037985;28;11556;-78
2022/03/31 05:24:39;;;;;;;;;66.25;54.25;;;;;;;;5031542;28;11563;-77
2022/03/31 05:27:06;;;;;;;;;69.25;55.00;;;;;;;;5032196;28;11520;-72
2022/03/31 05:29:34;;;;;;;;;68.00;55.75;;;;;;;;5030360;28;11703;-78
2022/03/31 05:32:03;;;;;;;;;74.75;56.00;;;;;;;;5034834;28;11493;-76
2022/03/31 05:34:30;;;;;;;;;68.00;54.75;;;;;;;;5034700;28;11568;-76
2022/03/31 05:36:57;;;;;;;;;80.00;57.75;;;;;;;;5038666;28;11536;-75
2022/03/31 05:39:25;;;;;;;;;70.75;56.50;;;;;;;;5038476;28;11574;-75
2022/03/31 05:41:54;;;;;;;;;67.75;54.00;;;;;;;;5036148;28;12355;-76
2022/03/31 05:44:23;;;;;;;;;61.75;51.00;;;;;;;;5040718;28;12312;-77
2022/03/31 05:46:51;;;;;;;;;61.00;50.50;;;;;;;;5034237;28;11604;-76
2022/03/31 05:49:18;;;;;;;;;65.25;53.25;;;;;;;;5039657;28;11550;-76
2022/03/31 05:51:47;;;;;;;;;62.50;52.00;;;;;;;;5037134;28;11758;-76
2022/03/31 05:54:14;;;;;;;;;68.75;55.25;;;;;;;;5036855;28;11543;-74
2022/03/31 05:56:43;;;;;;;;;74.50;54.75;;;;;;;;5037326;28;12491;-75
2022/03/31 05:59:13;;;;;;;;;62.50;47.50;;;;;;;;5037516;28;12276;-75
2022/03/31 06:01:40;;;;;;;;;60.00;43.25;;;;;;;;5038758;28;11475;-75
2022/03/31 06:04:07;;;;;;;;;61.50;50.50;;;;;;;;5038452;28;11530;-75
2022/03/31 06:06:35;;;;;;;;;61.75;46.50;;;;;;;;5039467;28;11555;-75
2022/03/31 06:09:02;;;;;;;;;64.50;52.75;;;;;;;;5020644;28;12967;-76
2022/03/31 06:11:30;;;;;;;;;62.00;47.75;;;;;;;;5042310;28;11531;-76
2022/03/31 06:13:58;;;;;;;;;61.75;51.50;;;;;;;;5043541;28;11627;-76
2022/03/31 06:16:28;;;;;;;;;63.00;52.25;;;;;;;;5023161;28;11648;-75
2022/03/31 06:18:55;;;;;;;;;59.25;41.50;;;;;;;;5039736;28;11542;-76
2022/03/31 06:21:23;;;;;;;;;66.00;51.00;;;;;;;;5039884;28;12974;-75
2022/03/31 06:23:51;;;;;;;;;56.75;47.25;;;;;;;;5042636;28;11509;-74
2022/03/31 06:26:18;;;;;;;;;58.00;47.75;;;;;;;;5041707;28;11493;-74
2022/03/31 06:28:45;;;;;;;;;51.50;42.50;;;;;;;;5034086;28;11659;-76
2022/03/31 06:31:13;;;;;;;;;43.25;39.25;;;;;;;;5009662;28;11647;-77
2022/03/31 06:33:42;;;;;;;;;56.00;45.50;;;;;;;;5038224;28;11542;-75
2022/03/31 06:36:09;;;;;;;;;53.75;45.50;;;;;;;;5041157;28;11494;-76
2022/03/31 06:38:36;;;;;;;;;49.50;42.75;;;;;;;;5039233;28;11585;-71
2022/03/31 06:41:13;;;;;;;;;52.75;43.75;;;;;;;;5041536;28;11535;-72
2022/03/31 06:43:42;;;;;;;;;52.50;42.75;;;;;;;;5038848;28;11514;-73
2022/03/31 06:46:10;;;;;;;;;59.50;48.50;;;;;;;;5042254;28;11525;-77
2022/03/31 06:48:38;;;;;;;;;51.50;44.75;;;;;;;;5033871;28;11625;-81
2022/03/31 06:51:08;;;;;;;;;54.50;47.00;;;;;;;;5030784;28;11682;-77
2022/03/31 06:53:36;;;;;;;;;50.75;43.25;;;;;;;;5030541;28;11729;-81
2022/03/31 06:56:04;;;;;;;;;59.00;47.75;;;;;;;;5028190;28;11526;-81
2022/03/31 06:58:32;;;;;;;;;56.00;44.50;;;;;;;;5042220;28;11522;-79
2022/03/31 07:00:59;;;;;;;;;54.25;47.25;;;;;;;;5022764;28;12347;-79
2022/03/31 07:03:27;;;;;;;;;48.50;41.75;;;;;;;;5029735;28;11650;-80
2022/03/31 07:05:54;;;;;;;;;47.00;43.00;;;;;;;;5026049;28;11654;-82
2022/03/31 07:08:24;;;;;;;;;42.50;41.00;;;;;;;;5041146;28;11517;-81
2022/03/31 07:10:51;;;;;;;;;50.75;44.25;;;;;;;;5029773;28;11497;-83
2022/03/31 07:13:19;;;;;;;;;45.00;39.75;;;;;;;;5040777;28;11621;-84
2022/03/31 07:15:46;;;;;;;;;45.25;41.75;;;;;;;;5036923;28;11725;-84
2022/03/31 07:18:14;;;;;;;;;43.00;39.75;;;;;;;;5033887;28;12280;-82
2022/03/31 07:20:42;;;;;;;;;34.25;30.25;;;;;;;;5041316;28;12351;-80
2022/03/31 07:23:09;;;;;;;;;32.75;32.25;;;;;;;;5029413;28;11526;-82
2022/03/31 07:25:39;;;;;;;;;43.75;35.75;;;;;;;;5033112;28;11562;-81
2022/03/31 07:28:07;;;;;;;;;39.75;33.50;;;;;;;;5026135;28;11508;-82
2022/03/31 07:30:34;;;;;;;;;44.25;38.75;;;;;;;;5029075;28;11458;-80
2022/03/31 07:33:03;;;;;;;;;27.75;27.75;;;;;;;;5030367;28;12169;-81
2022/03/31 07:35:32;;;;;;;;;33.00;31.75;;;;;;;;5005295;28;11535;-80
2022/03/31 07:38:00;;;;;;;;;25.75;25.25;;;;;;;;5038374;28;11655;-82
2022/03/31 07:40:29;;;;;;;;;27.50;25.50;;;;;;;;5013013;28;11472;-81
2022/03/31 07:42:58;;;;;;;;;22.50;20.25;;;;;;;;5027660;28;11526;-83
2022/03/31 07:45:25;;;;;;;;;30.00;26.00;;;;;;;;5038671;28;11551;-82
2022/03/31 07:47:53;;;;;;;;;34.00;28.75;;;;;;;;5036187;28;11505;-79
2022/03/31 07:50:21;;;;;;;;;27.50;25.00;;;;;;;;5038603;28;11520;-81
2022/03/31 07:52:50;;;;;;;;;27.50;27.50;;;;;;;;5027435;28;11533;-80
2022/03/31 07:55:19;;;;;;;;;32.50;27.75;;;;;;;;5039913;28;11485;-81
2022/03/31 07:57:47;;;;;;;;;28.75;26.25;;;;;;;;5042451;28;11525;-83
2022/03/31 08:00:17;;;;;;;;;27.50;24.00;;;;;;;;5038855;28;11550;-80
2022/03/31 08:02:46;;;;;;;;;21.00;19.00;;;;;;;;5033069;28;11511;-81
2022/03/31 08:05:16;;;;;;;;;21.25;21.25;;;;;;;;5033086;28;11506;-80
2022/03/31 08:07:44;;;;;;;;;23.75;23.75;;;;;;;;5032011;28;11492;-80
2022/03/31 08:10:11;;;;;;;;;21.00;21.00;;;;;;;;5017802;28;11705;-78
2022/03/31 08:12:40;;;;;;;;;21.50;19.75;;;;;;;;5015014;28;11490;-80
2022/03/31 08:15:10;;;;;;;;;23.75;21.25;;;;;;;;5033786;28;11520;-77
2022/03/31 08:17:39;;;;;;;;;21.50;21.50;;;;;;;;5034210;28;11506;-81
2022/03/31 08:20:08;;;;;;;;;21.00;21.00;;;;;;;;5033175;28;11548;-80
2022/03/31 08:22:36;;;;;;;;;22.50;22.25;;;;;;;;5016370;28;11494;-79
2022/03/31 08:25:05;;;;;;;;;26.00;24.00;;;;;;;;5037107;28;11638;-77
2022/03/31 08:27:35;;;;;;;;;28.00;22.75;;;;;;;;5032398;28;11631;-80
2022/03/31 08:30:02;;;;;;;;;14.50;14.50;;;;;;;;5034561;28;11572;-80
2022/03/31 08:32:34;;;;;;;;;25.25;21.25;;;;;;;;5026652;28;12103;-79
2022/03/31 08:35:03;;;;;;;;;24.00;24.00;;;;;;;;5028890;28;11528;-80
2022/03/31 08:37:31;;;;;;;;;19.50;19.50;;;;;;;;5034498;28;11603;-80
2022/03/31 08:39:58;;;;;;;;;17.75;17.75;;;;;;;;5017036;28;11591;-79
2022/03/31 08:42:26;;;;;;;;;18.25;18.25;;;;;;;;5027791;28;11524;-81
2022/03/31 08:44:54;;;;;;;;;21.00;21.00;;;;;;;;5032690;28;11502;-80
2022/03/31 08:47:21;;;;;;;;;19.25;13.75;;;;;;;;5024033;28;11651;-80
2022/03/31 08:49:49;;;;;;;;;19.25;17.50;;;;;;;;5027454;28;11517;-81
2022/03/31 08:52:18;;;;;;;;;11.75;11.75;;;;;;;;5011897;28;11546;-81
2022/03/31 08:54:45;;;;;;;;;14.00;10.75;;;;;;;;5037688;28;11495;-80
2022/03/31 08:57:12;;;;;;;;;11.50;11.50;;;;;;;;5030553;28;11612;-80
2022/03/31 08:59:40;;;;;;;;;17.00;13.00;;;;;;;;5026370;28;11481;-81
2022/03/31 09:02:07;;;;;;;;;15.75;14.00;;;;;;;;5017253;28;11437;-81
2022/03/31 09:04:35;;;;;;;;;10.75;10.75;;;;;;;;5042609;28;12177;-80
2022/03/31 09:07:03;;;;;;;;;13.75;13.75;;;;;;;;5041236;28;11588;-80
2022/03/31 09:09:31;;;;;;;;;14.75;14.25;;;;;;;;5038085;28;12696;-82
2022/03/31 09:11:59;;;;;;;;;14.75;14.75;;;;;;;;5018993;28;12304;-80
2022/03/31 09:14:31;;;;;;;;;15.25;13.75;;;;;;;;5038902;28;11500;-82
2022/03/31 09:17:00;;;;;;;;;15.00;13.00;;;;;;;;5037360;28;11493;-80
2022/03/31 09:19:27;;;;;;;;;14.00;13.00;;;;;;;;5042842;28;11577;-81
2022/03/31 09:21:57;;;;;;;;;10.25;10.25;;;;;;;;5041535;28;11548;-81
2022/03/31 09:24:27;;;;;;;;;17.75;14.75;;;;;;;;5038598;28;11612;-82
2022/03/31 09:26:58;;;;;;;;;17.25;14.50;;;;;;;;5039523;28;11554;-83
2022/03/31 09:29:26;;;;;;;;;16.50;16.50;;;;;;;;5025265;28;11731;-83
2022/03/31 09:31:55;;;;;;;;;23.00;15.25;;;;;;;;5035356;28;11458;-81
2022/03/31 09:34:22;;;;;;;;;16.50;16.50;;;;;;;;5043026;28;11499;-81
2022/03/31 09:36:51;;;;;;;;;16.25;16.25;;;;;;;;5042614;28;11544;-82
2022/03/31 09:39:20;;;;;;;;;19.25;16.25;;;;;;;;5040679;28;11495;-81
2022/03/31 09:41:50;;;;;;;;;26.00;21.25;;;;;;;;5043039;28;11516;-77
2022/03/31 09:44:22;;;;;;;;;19.25;17.75;;;;;;;;5048409;28;12565;-82
2022/03/31 09:46:50;;;;;;;;;17.50;15.00;;;;;;;;5042466;28;12315;-81
2022/03/31 09:49:19;;;;;;;;;17.25;17.25;;;;;;;;5041664;28;11867;-80
2022/03/31 09:51:49;;;;;;;;;15.50;15.50;;;;;;;;5042577;28;11527;-81
2022/03/31 09:54:18;;;;;;;;;12.75;10.00;;;;;;;;5042894;28;11493;-82
2022/03/31 09:56:47;;;;;;;;;9.50;9.50;;;;;;;;5042560;28;11484;-81
2022/03/31 09:59:16;;;;;;;;;8.00;8.00;;;;;;;;5032361;28;11507;-82
2022/03/31 10:01:46;;;;;;;;;9.75;9.75;;;;;;;;5039379;28;11561;-82
2022/03/31 10:04:15;;;;;;;;;6.00;6.00;;;;;;;;5035349;28;12038;-83
2022/03/31 10:06:43;;;;;;;;;5.75;5.50;;;;;;;;5035654;28;11552;-82
2022/03/31 10:09:12;;;;;;;;;4.00;4.00;;;;;;;;5040959;28;11434;-81
2022/03/31 10:11:42;;;;;;;;;11.00;11.00;;;;;;;;5039932;28;11481;-82
2022/03/31 10:17:00;;;;;;;;;11.75;11.75;;;;;;;;5465010;22;11652;-82
2022/03/31 10:19:32;;;;;;;;;12.50;11.75;;;;;;;;5001426;28;11508;-83
2022/03/31 10:22:03;;;;;;;;;13.50;12.00;;;;;;;;5013829;28;11551;-79
2022/03/31 10:24:44;;;;;;;;;11.50;11.50;;;;;;;;5019861;28;11513;-81
2022/03/31 10:27:15;;;;;;;;;14.25;14.25;;;;;;;;5023407;28;11621;-79
2022/03/31 10:29:45;;;;;;;;;14.50;12.25;;;;;;;;5018235;28;11553;-79
2022/03/31 10:32:18;;;;;;;;;26.75;23.00;;;;;;;;5005437;28;11590;-79
2022/03/31 10:34:48;;;;;;;;;16.50;14.00;;;;;;;;5008232;28;12065;-80
2022/03/31 10:37:18;;;;;;;;;17.25;11.50;;;;;;;;5014977;28;12384;-79
2022/03/31 10:39:56;;;;;;;;;18.75;18.75;;;;;;;;5016982;28;11645;-80
2022/03/31 10:42:24;;;;;;;;;18.75;17.00;;;;;;;;4995483;28;11534;-82
2022/03/31 10:45:02;;;;;;;;;14.25;13.25;;;;;;;;5020845;28;11569;-80
2022/03/31 10:47:35;;;;;;;;;16.75;12.00;;;;;;;;5017287;28;11559;-83
2022/03/31 10:50:02;;;;;;;;;10.50;6.00;;;;;;;;5017635;28;11539;-80
2022/03/31 10:52:32;;;;;;;;;8.75;8.00;;;;;;;;5017495;28;11493;-79
2022/03/31 10:55:10;;;;;;;;;8.50;6.25;;;;;;;;5022120;28;11588;-81
2022/03/31 10:57:43;;;;;;;;;8.00;4.50;;;;;;;;5018895;28;12325;-81
2022/03/31 11:00:12;;;;;;;;;9.75;8.00;;;;;;;;5001291;28;11551;-83
2022/03/31 11:02:47;;;;;;;;;7.00;5.75;;;;;;;;5017713;28;11488;-83
2022/03/31 11:05:15;;;;;;;;;2.25;2.25;;;;;;;;5016963;28;11559;-82
2022/03/31 11:07:42;;;;;;;;;3.00;3.00;;;;;;;;5021047;28;11472;-82
2022/03/31 11:10:11;;;;;;;;;4.50;4.50;;;;;;;;5020267;28;11446;-82
2022/03/31 11:12:39;;;;;;;;;4.50;2.25;;;;;;;;5019712;28;11464;-83
2022/03/31 11:15:08;;;;;;;;;9.00;9.00;;;;;;;;5014329;28;12776;-79
2022/03/31 11:17:37;;;;;;;;;1.00;1.00;;;;;;;;5014885;28;11427;-80
2022/03/31 11:20:17;;;;;;;;;5.00;2.00;;;;;;;;5016620;28;11456;-82
2022/03/31 11:22:48;;;;;;;;;3.00;3.00;;;;;;;;5015767;28;11490;-81
2022/03/31 11:25:19;;;;;;;;;2.00;2.00;;;;;;;;5017473;28;11453;-81
2022/03/31 11:27:48;;;;;;;;;6.25;6.25;;;;;;;;5018582;28;11536;-83
2022/03/31 11:30:18;;;;;;;;;5.00;5.00;;;;;;;;5019291;28;11443;-81
2022/03/31 11:32:48;;;;;;;;;5.75;5.75;;;;;;;;5015122;28;11676;-82
2022/03/31 11:35:18;;;;;;;;;5.00;5.00;;;;;;;;5019178;28;11506;-81
2022/03/31 11:37:48;;;;;;;;;8.25;6.00;;;;;;;;5015454;28;11609;-78
2022/03/31 11:40:20;;;;;;;;;6.25;6.25;;;;;;;;5015603;28;11572;-81
2022/03/31 11:42:49;;;;;;;;;7.50;6.25;;;;;;;;5018022;28;11404;-80
2022/03/31 11:45:34;;;;;;;;;5.00;5.00;;;;;;;;5016953;28;12253;-81
2022/03/31 11:48:03;;;;;;;;;5.75;5.75;;;;;;;;5016953;28;11482;-81
2022/03/31 11:50:33;;;;;;;;;5.00;5.00;;;;;;;;5010836;28;11465;-80
2022/03/31 11:53:17;;;;;;;;;6.00;6.00;;;;;;;;5012463;28;11609;-81
2022/03/31 11:55:55;;;;;;;;;5.00;5.00;;;;;;;;5016718;28;11446;-80
2022/03/31 11:58:22;;;;;;;;;7.50;6.00;;;;;;;;5023360;28;11461;-81
2022/03/31 12:00:51;;;;;;;;;7.00;7.00;;;;;;;;5000942;28;11427;-81
2022/03/31 12:03:19;;;;;;;;;9.00;9.00;;;;;;;;5010097;28;12553;-81
2022/03/31 12:05:56;;;;;;;;;7.75;6.00;;;;;;;;5022836;28;11426;-81
2022/03/31 12:08:23;;;;;;;;;9.50;9.50;;;;;;;;5016206;28;11461;-81
2022/03/31 12:10:51;;;;;;;;;10.00;7.50;;;;;;;;5016062;28;11469;-81
2022/03/31 12:13:19;;;;;;;;;10.75;10.50;;;;;;;;5009650;28;11517;-81
2022/03/31 12:15:47;;;;;;;;;9.00;7.00;;;;;;;;5016649;28;11519;-81
2022/03/31 12:18:17;;;;;;;;;8.50;6.50;;;;;;;;5018798;28;12267;-82
2022/03/31 12:20:46;;;;;;;;;7.50;7.50;;;;;;;;5018413;28;11550;-81
2022/03/31 12:23:22;;;;;;;;;7.25;7.25;;;;;;;;5019879;28;11474;-81
2022/03/31 12:25:50;;;;;;;;;7.00;7.00;;;;;;;;5015833;28;11481;-81
2022/03/31 12:28:21;;;;;;;;;11.00;11.00;;;;;;;;5016309;28;11473;-80
2022/03/31 12:30:50;;;;;;;;;11.00;9.50;;;;;;;;5020111;28;11417;-80
2022/03/31 12:33:23;;;;;;;;;8.50;7.00;;;;;;;;5020337;28;11476;-81
2022/03/31 12:35:57;;;;;;;;;7.00;7.00;;;;;;;;5016518;28;11436;-84
2022/03/31 12:38:51;;;;;;;;;6.00;6.00;;;;;;;;5017479;28;11509;-82
2022/03/31 12:41:22;;;;;;;;;6.75;6.75;;;;;;;;5022005;28;11454;-82
2022/03/31 12:44:01;;;;;;;;;11.50;10.00;;;;;;;;5011851;28;11432;-81
2022/03/31 12:46:31;;;;;;;;;6.25;6.25;;;;;;;;5014559;28;11499;-82
2022/03/31 12:49:03;;;;;;;;;11.50;7.00;;;;;;;;5005831;28;11184;-81
2022/03/31 12:51:43;;;;;;;;;5.50;5.50;;;;;;;;5005974;28;11143;-82
2022/03/31 12:54:24;;;;;;;;;5.25;5.25;;;;;;;;5013345;28;11861;-82
2022/03/31 12:56:53;;;;;;;;;6.00;6.00;;;;;;;;5010665;28;11098;-82
2022/03/31 12:59:23;;;;;;;;;5.75;5.75;;;;;;;;5011646;28;11038;-83
2022/03/31 13:02:02;;;;;;;;;6.00;6.00;;;;;;;;5005000;28;10648;-83
2022/03/31 13:04:30;;;;;;;;;5.50;5.50;;;;;;;;5007421;28;10646;-82
2022/03/31 13:06:58;;;;;;;;;6.00;6.00;;;;;;;;5023489;28;10631;-82
2022/03/31 13:09:27;;;;;;;;;8.75;7.00;;;;;;;;5004873;28;10428;-84
2022/03/31 13:11:56;;;;;;;;;7.50;6.00;;;;;;;;5025586;28;10272;-85
2022/03/31 13:14:23;;;;;;;;;5.25;5.25;;;;;;;;5025223;28;11010;-84
2022/03/31 13:16:51;;;;;;;;;8.00;6.00;;;;;;;;5013670;28;10159;-84
2022/03/31 13:19:18;;;;;;;;;7.00;7.00;;;;;;;;5021010;28;10143;-83
2022/03/31 13:21:47;;;;;;;;;4.00;4.00;;;;;;;;5022143;28;9996;-85
2022/03/31 13:24:15;;;;;;;;;7.50;7.50;;;;;;;;5024344;28;10017;-84
2022/03/31 13:26:44;;;;;;;;;3.75;3.00;;;;;;;;5020267;28;9982;-84
2022/03/31 13:29:11;;;;;;;;;4.50;3.00;;;;;;;;5026207;28;9951;-85
2022/03/31 13:31:42;;;;;;;;;6.50;6.25;;;;;;;;5020990;28;10027;-84
2022/03/31 13:34:10;;;;;;;;;6.75;6.75;;;;;;;;5026103;28;10114;-85
2022/03/31 13:36:40;;;;;;;;;4.75;4.50;;;;;;;;5021936;28;10190;-84
2022/03/31 13:39:10;;;;;;;;;3.00;3.00;;;;;;;;5019965;28;10155;-86
2022/03/31 13:41:38;;;;;;;;;3.00;3.00;;;;;;;;5024662;28;9793;-85
2022/03/31 13:44:07;;;;;;;;;3.00;3.00;;;;;;;;5025268;28;9823;-85
2022/03/31 13:46:35;;;;;;;;;6.50;5.25;;;;;;;;5022747;28;9813;-85
2022/03/31 13:49:02;;;;;;;;;3.25;3.25;;;;;;;;5024744;28;9874;-84
2022/03/31 13:51:29;;;;;;;;;2.00;2.00;;;;;;;;5025158;28;10117;-84
2022/03/31 13:54:05;;;;;;;;;2.25;2.25;;;;;;;;5024830;28;10043;-84
2022/03/31 14:03:01;;;;;;;;;1.50;1.50;;;;;;;;5016500;28;10625;-85
2022/03/31 14:05:28;;;;;;;;;2.00;2.00;;;;;;;;5020275;28;10963;-84
2022/03/31 14:07:56;;;;;;;;;2.00;2.00;;;;;;;;5024786;28;11084;-83
2022/03/31 14:10:24;;;;;;;;;1.50;1.50;;;;;;;;5022563;28;11083;-84
2022/03/31 14:12:51;;;;;;;;;3.50;2.00;;;;;;;;5021081;28;11995;-84
2022/03/31 14:15:20;;;;;;;;;5.00;3.00;;;;;;;;5037079;28;11137;-83
2022/03/31 14:17:47;;;;;;;;;5.00;3.00;;;;;;;;5024467;28;11096;-84
2022/03/31 14:20:16;;;;;;;;;1.00;1.00;;;;;;;;5022084;28;11125;-83
2022/03/31 14:22:44;;;;;;;;;1.00;1.00;;;;;;;;5019914;28;11486;-84
2022/03/31 14:25:11;;;;;;;;;5.00;5.00;;;;;;;;5025827;28;10994;-83
2022/03/31 14:27:38;;;;;;;;;4.00;2.25;;;;;;;;5019213;28;11212;-83
2022/03/31 14:30:09;;;;;;;;;3.50;2.25;;;;;;;;5018882;28;11081;-83
2022/03/31 14:32:40;;;;;;;;;2.00;2.00;;;;;;;;5018163;28;11113;-83
2022/03/31 14:35:08;;;;;;;;;0.50;0.50;;;;;;;;5019337;28;11058;-83
2022/03/31 14:37:36;;;;;;;;;2.00;2.00;;;;;;;;5015715;28;10993;-84
2022/03/31 14:40:04;;;;;;;;;1.25;1.25;;;;;;;;5022119;28;11079;-84
2022/03/31 14:42:32;;;;;;;;;1.00;1.00;;;;;;;;4979689;28;11051;-84
2022/03/31 14:44:59;;;;;;;;;1.75;1.25;;;;;;;;5025641;28;10916;-83